createdAt,value
2023-01-22T00:01:03.000Z,5.77
2023-01-22T00:03:30.755Z,5.41
2023-01-22T00:05:58.545Z,5.08
2023-01-22T00:08:26.831Z,5.47
2023-01-22T00:10:56.072Z,5.29
2023-01-22T00:13:25.422Z,4.97
2023-01-22T00:15:55.282Z,5.22
2023-01-22T00:18:23.073Z,5.27
2023-01-22T00:20:52.225Z,5.29
2023-01-22T00:23:20.352Z,4.89
2023-01-22T00:25:48.124Z,5.23
2023-01-22T00:28:16.910Z,5.47
2023-01-22T00:30:44.901Z,5.31
2023-01-22T00:33:13.977Z,4.93
2023-01-22T00:35:41.668Z,5.34
2023-01-22T00:38:09.357Z,5.68
2023-01-22T00:40:37.232Z,5.91
2023-01-22T00:43:04.942Z,5.30
2023-01-22T00:45:34.090Z,5.04
2023-01-22T00:48:01.914Z,5.49
2023-01-22T00:50:30.988Z,5.52
2023-01-22T00:52:58.692Z,5.83
2023-01-22T00:55:26.770Z,5.74
2023-01-22T00:57:54.500Z,6.11
2023-01-22T01:00:22.602Z,5.43
2023-01-22T01:03:08.177Z,5.21
2023-01-22T01:05:37.290Z,5.71
2023-01-22T01:08:05.663Z,5.79
2023-01-22T01:10:33.388Z,5.28
2023-01-22T01:13:01.085Z,5.53
2023-01-22T01:15:28.821Z,5.53
2023-01-22T01:17:56.516Z,5.77
2023-01-22T01:20:24.253Z,5.89
2023-01-22T01:22:53.297Z,5.71
2023-01-22T01:25:21.013Z,5.63
2023-01-22T01:27:48.714Z,5.92
2023-01-22T01:30:18.081Z,5.58
2023-01-22T01:32:45.959Z,5.84
2023-01-22T01:35:13.672Z,5.54
2023-01-22T01:37:41.359Z,5.49
2023-01-22T01:40:12.158Z,6.11
2023-01-22T01:42:40.940Z,5.92
2023-01-22T01:45:23.619Z,6.01
2023-01-22T01:47:56.092Z,5.94
2023-01-22T01:50:25.914Z,5.74
2023-01-22T01:52:53.880Z,6.31
2023-01-22T01:55:29.356Z,5.84
2023-01-22T01:58:01.612Z,5.77
2023-01-22T02:00:36.281Z,6.26
2023-01-22T02:03:04.882Z,5.94
2023-01-22T02:05:37.644Z,5.85
2023-01-22T02:08:06.736Z,5.85
2023-01-22T02:10:36.286Z,5.92
2023-01-22T02:13:08.756Z,5.66
2023-01-22T02:15:38.726Z,5.56
2023-01-22T02:18:06.530Z,5.96
2023-01-22T02:20:36.952Z,6.20
2023-01-22T02:23:05.934Z,6.08
2023-01-22T02:25:34.927Z,5.33
2023-01-22T02:28:02.696Z,6.08
2023-01-22T02:30:30.464Z,6.05
2023-01-22T02:32:58.247Z,5.88
2023-01-22T02:35:25.985Z,6.25
2023-01-22T02:37:55.096Z,6.01
2023-01-22T02:40:23.037Z,5.54
2023-01-22T02:42:50.837Z,5.97
2023-01-22T02:45:18.690Z,6.06
2023-01-22T02:47:46.408Z,6.27
2023-01-22T02:50:14.452Z,6.16
2023-01-22T02:52:42.196Z,6.18
2023-01-22T02:55:11.425Z,6.15
2023-01-22T02:57:39.160Z,5.90
2023-01-22T03:00:08.287Z,5.57
2023-01-22T03:02:36.001Z,5.50
2023-01-22T03:05:04.308Z,6.02
2023-01-22T03:07:42.308Z,5.98
2023-01-22T03:10:18.373Z,6.05
2023-01-22T03:13:05.248Z,5.76
2023-01-22T03:15:50.680Z,5.92
2023-01-22T03:18:36.037Z,5.95
2023-01-22T03:21:20.229Z,6.01
2023-01-22T03:23:49.599Z,6.37
2023-01-22T03:26:19.517Z,6.12
2023-01-22T03:28:47.251Z,6.15
2023-01-22T03:31:16.209Z,5.63
2023-01-22T03:33:44.499Z,5.47
2023-01-22T03:36:14.345Z,5.48
2023-01-22T03:38:42.135Z,5.48
2023-01-22T03:41:13.383Z,5.91
2023-01-22T03:43:42.694Z,5.79
2023-01-22T03:46:13.353Z,5.98
2023-01-22T03:48:41.694Z,5.90
2023-01-22T03:51:11.621Z,5.90
2023-01-22T03:53:39.957Z,5.99
2023-01-22T03:56:11.542Z,5.68
2023-01-22T03:58:39.634Z,5.76
2023-01-22T04:01:10.203Z,5.68
2023-01-22T04:03:38.421Z,5.70
2023-01-22T04:06:07.175Z,5.96
2023-01-22T04:08:36.620Z,6.22
2023-01-22T04:11:05.048Z,5.64
2023-01-22T04:13:34.076Z,5.56
2023-01-22T04:16:02.408Z,5.93
2023-01-22T04:18:31.686Z,6.20
2023-01-22T04:20:59.616Z,5.93
2023-01-22T04:23:27.690Z,6.30
2023-01-22T04:25:55.690Z,5.91
2023-01-22T04:28:23.504Z,5.87
2023-01-22T04:30:54.632Z,5.83
2023-01-22T04:33:22.455Z,5.81
2023-01-22T04:35:53.016Z,6.06
2023-01-22T04:38:21.040Z,5.47
2023-01-22T04:40:48.950Z,6.06
2023-01-22T04:43:16.691Z,6.12
2023-01-22T04:45:44.566Z,6.44
2023-01-22T04:48:12.769Z,6.26
2023-01-22T04:50:40.732Z,5.85
2023-01-22T04:53:11.103Z,5.76
2023-01-22T04:55:38.850Z,5.82
2023-01-22T04:58:06.577Z,5.85
2023-01-22T05:00:34.932Z,6.01
2023-01-22T05:03:03.978Z,6.34
2023-01-22T05:05:32.742Z,6.11
2023-01-22T05:08:01.309Z,5.94
2023-01-22T05:10:30.443Z,5.95
2023-01-22T05:12:58.292Z,6.29
2023-01-22T05:15:26.079Z,5.67
2023-01-22T05:17:54.340Z,6.22
2023-01-22T05:20:22.395Z,6.02
2023-01-22T05:22:50.448Z,5.99
2023-01-22T05:25:18.500Z,6.14
2023-01-22T05:27:47.620Z,6.33
2023-01-22T05:30:16.030Z,5.82
2023-01-22T05:32:43.896Z,6.36
2023-01-22T05:35:12.358Z,6.46
2023-01-22T05:37:40.087Z,5.83
2023-01-22T05:40:09.459Z,6.41
2023-01-22T05:42:37.206Z,6.16
2023-01-22T05:45:07.637Z,6.16
2023-01-22T05:47:35.398Z,6.22
2023-01-22T05:50:03.196Z,5.89
2023-01-22T05:52:30.916Z,5.80
2023-01-22T05:54:59.937Z,6.20
2023-01-22T05:57:29.724Z,6.37
2023-01-22T05:59:57.474Z,6.37
2023-01-22T06:02:26.627Z,6.22
2023-01-22T06:04:54.356Z,6.23
2023-01-22T06:07:22.527Z,6.00
2023-01-22T06:09:50.242Z,6.19
2023-01-22T06:12:18.517Z,5.81
2023-01-22T06:14:46.261Z,5.75
2023-01-22T06:17:14.022Z,6.79
2023-01-22T06:19:43.179Z,6.40
2023-01-22T06:22:10.980Z,6.52
2023-01-22T06:24:39.084Z,6.33
2023-01-22T06:27:06.793Z,6.43
2023-01-22T06:29:34.493Z,6.15
2023-01-22T06:32:02.234Z,5.88
2023-01-22T06:34:29.964Z,6.12
2023-01-22T06:36:59.023Z,5.82
2023-01-22T06:39:26.742Z,6.05
2023-01-22T06:41:54.464Z,6.34
2023-01-22T06:44:22.253Z,6.32
2023-01-22T06:46:50.058Z,6.12
2023-01-22T06:49:17.860Z,6.58
2023-01-22T06:51:45.595Z,6.37
2023-01-22T06:54:14.983Z,6.48
2023-01-22T06:56:42.720Z,6.18
2023-01-22T06:59:10.506Z,5.62
2023-01-22T07:01:38.257Z,6.22
2023-01-22T07:04:06.175Z,6.24
2023-01-22T07:06:33.890Z,5.97
2023-01-22T07:09:01.633Z,5.91
2023-01-22T07:11:30.682Z,6.12
2023-01-22T07:13:58.417Z,6.05
2023-01-22T07:16:26.605Z,6.06
2023-01-22T07:18:54.378Z,5.87
2023-01-22T07:21:22.167Z,6.14
2023-01-22T07:23:49.865Z,6.01
2023-01-22T07:26:17.825Z,5.65
2023-01-22T07:28:46.998Z,6.19
2023-01-22T07:31:14.915Z,6.17
2023-01-22T07:33:43.097Z,5.99
2023-01-22T07:36:10.918Z,6.17
2023-01-22T07:38:38.649Z,5.95
2023-01-22T07:41:20.269Z,6.23
2023-01-22T07:43:53.645Z,6.09
2023-01-22T07:46:21.875Z,6.38
2023-01-22T07:48:49.663Z,6.49
2023-01-22T07:51:17.588Z,6.79
2023-01-22T07:53:45.555Z,6.32
2023-01-22T07:56:13.339Z,6.11
2023-01-22T07:58:41.232Z,6.50
2023-01-22T08:01:11.163Z,6.34
2023-01-22T08:03:39.018Z,5.91
2023-01-22T08:06:10.341Z,6.46
2023-01-22T08:08:38.850Z,6.66
2023-01-22T08:11:06.614Z,5.96
2023-01-22T08:13:34.342Z,6.32
2023-01-22T08:16:02.172Z,6.08
2023-01-22T08:18:31.360Z,6.05
2023-01-22T08:21:00.920Z,6.58
2023-01-22T08:23:28.742Z,6.75
2023-01-22T08:25:59.354Z,6.58
2023-01-22T08:28:27.249Z,6.25
2023-01-22T08:30:58.654Z,6.52
2023-01-22T08:33:27.139Z,6.59
2023-01-22T08:35:56.268Z,6.68
2023-01-22T08:38:24.001Z,6.37
2023-01-22T08:40:52.261Z,6.34
2023-01-22T08:43:20.362Z,6.25
2023-01-22T08:45:49.737Z,6.14
2023-01-22T08:48:17.717Z,6.13
2023-01-22T08:50:45.387Z,6.10
2023-01-22T08:53:14.430Z,6.40
2023-01-22T08:55:42.090Z,6.14
2023-01-22T08:58:10.466Z,6.88
2023-01-22T09:00:38.108Z,6.11
2023-01-22T09:03:05.788Z,6.27
2023-01-22T09:05:33.476Z,6.37
2023-01-22T09:08:01.189Z,6.19
2023-01-22T09:10:30.240Z,6.12
2023-01-22T09:13:00.146Z,6.26
2023-01-22T09:15:28.347Z,6.32
2023-01-22T09:17:56.124Z,6.77
2023-01-22T09:20:24.041Z,6.56
2023-01-22T09:22:51.749Z,6.32
2023-01-22T09:25:20.406Z,6.50
2023-01-22T09:27:49.525Z,6.80
2023-01-22T09:30:18.015Z,6.36
2023-01-22T09:32:45.839Z,6.93
2023-01-22T09:35:15.575Z,6.91
2023-01-22T09:37:44.223Z,6.94
2023-01-22T09:40:22.374Z,6.70
2023-01-22T09:42:52.468Z,6.43
2023-01-22T09:45:25.263Z,6.73
2023-01-22T09:47:55.663Z,7.16
2023-01-22T09:50:26.319Z,7.24
2023-01-22T09:52:57.929Z,7.05
2023-01-22T09:55:30.761Z,7.07
2023-01-22T09:58:05.623Z,6.97
2023-01-22T10:00:42.008Z,7.00
2023-01-22T10:03:18.403Z,7.06
2023-01-22T10:05:50.558Z,6.63
2023-01-22T10:08:21.379Z,6.56
2023-01-22T10:10:50.900Z,6.30
2023-01-22T10:13:22.295Z,6.94
2023-01-22T10:15:54.707Z,6.53
2023-01-22T10:18:32.553Z,6.70
2023-01-22T10:21:04.495Z,7.01
2023-01-22T10:23:33.868Z,6.74
2023-01-22T10:26:14.189Z,6.99
2023-01-22T10:28:48.281Z,7.28
2023-01-22T10:31:24.171Z,7.04
2023-01-22T10:33:57.287Z,6.21
2023-01-22T10:36:25.061Z,7.09
2023-01-22T10:39:04.587Z,7.54
2023-01-22T10:41:32.854Z,7.14
2023-01-22T10:44:20.503Z,7.44
2023-01-22T10:46:49.795Z,7.09
2023-01-22T10:49:20.672Z,7.23
2023-01-22T10:51:54.440Z,7.16
2023-01-22T10:54:28.293Z,7.28
2023-01-22T10:57:06.173Z,7.04
2023-01-22T10:59:35.742Z,7.27
2023-01-22T11:02:12.354Z,6.77
2023-01-22T11:04:40.152Z,6.71
2023-01-22T11:07:12.619Z,7.20
2023-01-22T11:09:44.550Z,7.00
2023-01-22T11:12:17.568Z,7.09
2023-01-22T11:14:51.698Z,6.64
2023-01-22T11:17:26.796Z,7.32
2023-01-22T11:20:01.704Z,6.89
2023-01-22T11:22:34.746Z,6.41
2023-01-22T11:25:03.765Z,6.88
2023-01-22T11:27:59.702Z,6.76
2023-01-22T11:30:44.045Z,6.89
2023-01-22T11:33:23.253Z,7.26
2023-01-22T11:35:58.576Z,6.96
2023-01-22T11:38:34.311Z,7.24
2023-01-22T11:41:32.112Z,7.15
2023-01-22T11:44:20.413Z,7.05
2023-01-22T11:47:06.036Z,7.20
2023-01-22T11:49:42.126Z,7.18
2023-01-22T11:52:20.919Z,6.85
2023-01-22T11:55:06.001Z,6.39
2023-01-22T11:57:38.048Z,6.70
2023-01-22T12:00:28.125Z,7.09
2023-01-22T12:03:28.381Z,6.62
2023-01-22T12:06:12.849Z,7.01
2023-01-22T12:08:51.224Z,6.63
2023-01-22T12:11:35.454Z,6.66
2023-01-22T12:14:21.753Z,7.22
2023-01-22T12:16:58.901Z,6.80
2023-01-22T12:19:44.957Z,6.85
2023-01-22T12:22:28.333Z,6.80
2023-01-22T12:25:02.196Z,6.78
2023-01-22T12:27:35.786Z,6.73
2023-01-22T12:30:14.976Z,6.38
2023-01-22T12:32:46.303Z,6.32
2023-01-22T12:35:18.449Z,6.97
2023-01-22T12:37:50.006Z,6.21
2023-01-22T12:40:31.991Z,6.62
2023-01-22T12:43:02.404Z,6.48
2023-01-22T12:45:42.083Z,6.69
2023-01-22T12:48:25.369Z,6.77
2023-01-22T12:50:56.359Z,6.26
2023-01-22T12:53:29.189Z,6.76
2023-01-22T12:56:02.833Z,6.80
2023-01-22T12:58:33.139Z,6.51
2023-01-22T13:01:03.956Z,6.43
2023-01-22T13:03:33.235Z,6.29
2023-01-22T13:06:04.567Z,6.60
2023-01-22T13:08:40.840Z,6.51
2023-01-22T13:11:10.870Z,6.41
2023-01-22T13:13:50.174Z,6.56
2023-01-22T13:16:21.598Z,6.01
2023-01-22T13:18:51.900Z,6.66
2023-01-22T13:21:27.081Z,6.97
2023-01-22T13:24:00.000Z,6.97
2023-01-22T13:26:30.570Z,6.19
2023-01-22T13:29:01.042Z,6.08
2023-01-22T13:31:29.112Z,6.18
2023-01-22T13:33:58.951Z,6.79
2023-01-22T13:36:29.096Z,6.39
2023-01-22T13:38:58.870Z,6.64
2023-01-22T13:41:30.202Z,6.59
2023-01-22T13:43:58.398Z,6.01
2023-01-22T13:46:28.648Z,6.44
2023-01-22T13:49:05.273Z,6.36
2023-01-22T13:51:36.135Z,6.62
2023-01-22T13:54:06.063Z,6.25
2023-01-22T13:56:34.133Z,6.50
2023-01-22T13:59:18.302Z,6.55
2023-01-22T14:01:46.694Z,6.51
2023-01-22T14:04:30.711Z,6.73
2023-01-22T14:06:59.936Z,7.01
2023-01-22T14:09:30.026Z,6.32
2023-01-22T14:11:58.223Z,6.33
2023-01-22T14:14:27.100Z,6.39
2023-01-22T14:16:54.792Z,6.12
2023-01-22T14:19:22.578Z,6.14
2023-01-22T14:21:50.290Z,6.28
2023-01-22T14:24:19.379Z,6.65
2023-01-22T14:26:47.105Z,6.23
2023-01-22T14:29:14.925Z,5.82
2023-01-22T14:31:42.698Z,6.05
2023-01-22T14:34:12.482Z,5.97
2023-01-22T14:36:40.201Z,6.55
2023-01-22T14:39:08.202Z,5.71
2023-01-22T14:41:37.287Z,5.91
2023-01-22T14:44:05.525Z,5.78
2023-01-22T14:46:33.287Z,5.64
2023-01-22T14:49:01.902Z,6.06
2023-01-22T14:51:29.669Z,5.53
2023-01-22T14:53:58.270Z,5.95
2023-01-22T14:56:26.210Z,6.72
2023-01-22T14:58:55.308Z,6.10
2023-01-22T15:01:24.030Z,5.95
2023-01-22T15:03:52.355Z,6.04
2023-01-22T15:06:20.123Z,5.61
2023-01-22T15:08:47.858Z,5.96
2023-01-22T15:11:15.642Z,6.12
2023-01-22T15:13:43.389Z,6.10
2023-01-22T15:16:13.056Z,6.33
2023-01-22T15:18:40.866Z,6.10
2023-01-22T15:21:09.106Z,6.22
2023-01-22T15:23:36.859Z,5.96
2023-01-22T15:26:09.501Z,6.22
2023-01-22T15:28:37.878Z,6.00
2023-01-22T15:31:08.011Z,5.94
2023-01-22T15:33:38.141Z,6.20
2023-01-22T15:36:06.811Z,6.28
2023-01-22T15:38:34.935Z,6.36
2023-01-22T15:41:04.280Z,6.54
2023-01-22T15:43:32.002Z,6.39
2023-01-22T15:45:59.913Z,6.26
2023-01-22T15:48:27.711Z,6.89
2023-01-22T15:51:07.319Z,6.15
2023-01-22T15:53:35.144Z,6.67
2023-01-22T15:56:03.205Z,6.48
2023-01-22T15:58:32.150Z,6.72
2023-01-22T16:00:59.994Z,6.88
2023-01-22T16:03:28.197Z,6.55
2023-01-22T16:06:07.712Z,6.42
2023-01-22T16:08:36.709Z,6.39
2023-01-22T16:11:04.857Z,6.51
2023-01-22T16:13:32.552Z,6.86
2023-01-22T16:16:01.313Z,8.08
2023-01-22T16:18:29.315Z,7.41
2023-01-22T16:21:01.689Z,6.90
2023-01-22T16:23:30.498Z,6.64
2023-01-22T16:25:58.287Z,6.64
2023-01-22T16:28:26.100Z,6.18
2023-01-22T16:30:54.061Z,6.32
2023-01-22T16:33:24.709Z,6.54
2023-01-22T16:36:01.161Z,6.74
2023-01-22T16:38:29.291Z,6.59
2023-01-22T16:41:06.489Z,6.26
2023-01-22T16:43:34.633Z,6.50
2023-01-22T16:46:02.393Z,6.76
2023-01-22T16:48:30.104Z,6.29
2023-01-22T16:50:57.878Z,6.68
2023-01-22T16:53:27.024Z,6.64
2023-01-22T16:55:54.710Z,5.85
2023-01-22T16:58:22.454Z,6.13
2023-01-22T17:00:50.221Z,5.85
2023-01-22T17:03:17.953Z,5.91
2023-01-22T17:05:48.751Z,6.37
2023-01-22T17:08:16.478Z,6.12
2023-01-22T17:10:45.572Z,6.55
2023-01-22T17:13:13.630Z,6.29
2023-01-22T17:15:42.161Z,6.43
2023-01-22T17:18:10.295Z,5.79
2023-01-22T17:20:38.351Z,5.95
2023-01-22T17:23:06.394Z,6.13
2023-01-22T17:25:34.150Z,6.20
2023-01-22T17:28:03.640Z,6.33
2023-01-22T17:30:31.337Z,6.12
2023-01-22T17:32:59.290Z,6.19
2023-01-22T17:35:27.035Z,6.61
2023-01-22T17:37:54.777Z,6.00
2023-01-22T17:40:22.492Z,5.93
2023-01-22T17:42:50.219Z,6.36
2023-01-22T17:45:19.417Z,5.70
2023-01-22T17:47:47.347Z,6.21
2023-01-22T17:50:15.138Z,6.80
2023-01-22T17:52:42.874Z,6.59
2023-01-22T17:55:11.340Z,6.28
2023-01-22T17:57:41.370Z,6.52
2023-01-22T18:00:10.623Z,6.13
2023-01-22T18:02:39.926Z,6.48
2023-01-22T18:05:10.388Z,6.37
2023-01-22T18:07:38.292Z,6.59
2023-01-22T18:10:06.612Z,6.25
2023-01-22T18:12:34.345Z,6.29
2023-01-22T18:15:02.123Z,6.24
2023-01-22T18:17:29.902Z,6.34
2023-01-22T18:19:58.983Z,6.05
2023-01-22T18:22:26.710Z,6.20
2023-01-22T18:24:54.452Z,6.08
2023-01-22T18:27:22.199Z,6.30
2023-01-22T18:29:49.928Z,6.42
2023-01-22T18:32:17.723Z,6.59
2023-01-22T18:34:45.471Z,6.23
2023-01-22T18:37:14.555Z,6.64
2023-01-22T18:39:42.294Z,6.55
2023-01-22T18:42:10.023Z,6.24
2023-01-22T18:44:39.835Z,6.04
2023-01-22T18:47:11.141Z,6.23
2023-01-22T18:49:39.139Z,6.44
2023-01-22T18:52:06.867Z,6.24
2023-01-22T18:54:35.975Z,6.18
2023-01-22T18:57:03.696Z,5.89
2023-01-22T18:59:31.409Z,6.26
2023-01-22T19:02:00.019Z,5.86
2023-01-22T19:04:29.015Z,6.24
2023-01-22T19:06:57.281Z,5.94
2023-01-22T19:09:26.914Z,5.84
2023-01-22T19:11:56.487Z,6.19
2023-01-22T19:14:24.283Z,5.50
2023-01-22T19:16:53.338Z,5.22
2023-01-22T19:19:21.817Z,5.61
2023-01-22T19:21:53.718Z,5.46
2023-01-22T19:24:25.041Z,5.28
2023-01-22T19:26:54.739Z,5.57
2023-01-22T19:29:25.394Z,6.03
2023-01-22T19:31:54.256Z,5.85
2023-01-22T19:34:24.770Z,5.44
2023-01-22T19:36:54.112Z,5.86
2023-01-22T19:39:22.567Z,6.30
2023-01-22T19:41:50.429Z,5.83
2023-01-22T19:44:18.489Z,5.59
2023-01-22T19:46:47.839Z,5.72
2023-01-22T19:49:15.694Z,5.51
2023-01-22T19:51:43.460Z,6.06
2023-01-22T19:54:11.694Z,6.13
2023-01-22T19:56:42.117Z,6.33
2023-01-22T19:59:12.958Z,6.42
2023-01-22T20:01:40.790Z,5.72
2023-01-22T20:04:13.857Z,5.91
2023-01-22T20:06:41.578Z,5.75
2023-01-22T20:09:10.626Z,5.97
2023-01-22T20:11:39.016Z,5.84
2023-01-22T20:14:06.757Z,5.69
2023-01-22T20:16:34.635Z,6.05
2023-01-22T20:19:02.380Z,6.04
2023-01-22T20:21:31.488Z,6.29
2023-01-22T20:23:59.280Z,6.06
2023-01-22T20:26:27.015Z,5.92
2023-01-22T20:28:54.731Z,5.62
2023-01-22T20:31:24.209Z,5.33
2023-01-22T20:33:53.383Z,5.30
2023-01-22T20:36:22.705Z,6.00
2023-01-22T20:38:54.140Z,6.43
2023-01-22T20:41:22.946Z,5.36
2023-01-22T20:43:51.317Z,5.56
2023-01-22T20:46:21.935Z,5.68
2023-01-22T20:48:50.388Z,5.86
2023-01-22T20:51:19.884Z,5.68
2023-01-22T20:53:49.947Z,5.36
2023-01-22T20:56:21.029Z,5.48
2023-01-22T20:58:48.952Z,5.58
2023-01-22T21:01:19.283Z,6.02
2023-01-22T21:03:48.596Z,5.54
2023-01-22T21:06:17.567Z,5.93
2023-01-22T21:08:49.673Z,6.03
2023-01-22T21:11:20.711Z,6.14
2023-01-22T21:13:49.097Z,5.79
2023-01-22T21:16:18.912Z,5.91
2023-01-22T21:18:46.939Z,5.80
2023-01-22T21:21:18.538Z,6.14
2023-01-22T21:23:48.214Z,6.00
2023-01-22T21:26:19.262Z,6.23
2023-01-22T21:28:49.291Z,5.73
2023-01-22T21:31:19.330Z,5.61
2023-01-22T21:33:48.624Z,6.23
2023-01-22T21:36:18.493Z,5.75
2023-01-22T21:38:47.709Z,6.10
2023-01-22T21:41:17.588Z,5.65
2023-01-22T21:44:06.053Z,5.94
2023-01-22T21:46:35.860Z,6.05
2023-01-22T21:49:16.221Z,6.01
2023-01-22T21:51:46.030Z,5.74
2023-01-22T21:54:15.168Z,5.53
2023-01-22T21:56:43.113Z,5.70
2023-01-22T21:59:12.577Z,5.67
2023-01-22T22:01:40.734Z,5.60
2023-01-22T22:04:09.847Z,5.76
2023-01-22T22:06:38.567Z,5.81
2023-01-22T22:09:09.129Z,5.84
2023-01-22T22:11:36.866Z,5.49
2023-01-22T22:14:05.691Z,5.44
2023-01-22T22:16:34.947Z,5.19
2023-01-22T22:19:02.700Z,5.56
2023-01-22T22:21:30.507Z,5.53
2023-01-22T22:23:58.993Z,6.00
2023-01-22T22:26:27.240Z,5.67
2023-01-22T22:28:55.336Z,5.34
2023-01-22T22:31:23.160Z,5.64
2023-01-22T22:33:54.020Z,5.69
2023-01-22T22:36:23.766Z,5.76
2023-01-22T22:38:51.932Z,5.78
2023-01-22T22:41:22.097Z,6.10
2023-01-22T22:43:51.978Z,5.51
2023-01-22T22:46:22.191Z,5.33
2023-01-22T22:48:52.478Z,5.53
2023-01-22T22:51:23.592Z,5.64
2023-01-22T22:53:54.707Z,5.40
2023-01-22T22:56:22.982Z,5.45
2023-01-22T22:58:50.712Z,5.51
2023-01-22T23:01:19.763Z,5.59
2023-01-22T23:03:47.967Z,5.16
2023-01-22T23:06:19.283Z,5.45
2023-01-22T23:08:52.120Z,5.33
2023-01-22T23:11:21.557Z,5.50
2023-01-22T23:13:50.292Z,5.55
2023-01-22T23:16:20.353Z,5.52
2023-01-22T23:18:49.721Z,5.60
2023-01-22T23:21:21.783Z,5.59
2023-01-22T23:23:49.792Z,5.67
2023-01-22T23:26:22.883Z,5.66
2023-01-22T23:28:52.091Z,5.75
2023-01-22T23:31:19.971Z,5.67
2023-01-22T23:33:47.804Z,5.46
2023-01-22T23:36:18.241Z,5.81
2023-01-22T23:38:46.531Z,5.20
2023-01-22T23:41:17.631Z,5.65
2023-01-22T23:43:46.046Z,5.28
2023-01-22T23:46:16.178Z,5.27
2023-01-22T23:48:44.219Z,5.69
2023-01-22T23:51:14.234Z,5.06
2023-01-22T23:53:45.338Z,5.28
2023-01-22T23:56:14.340Z,5.68
2023-01-22T23:58:42.520Z,5.62
